This is the latest recevied weather packets stored in our database for station/object K8WEH. If no packets are shown the sender has not sent any weather packets the latest 1 day(s).
| Time | Temp. | Humidity | Pressure | Rain* | Wind** | Luminosity | Snow |
|---|---|---|---|---|---|---|---|
| 1778026226 | 15.56° C | 54% | 1008.6 hPa | 0 mm | - | - | - |
| 1778025925 | 15.56° C | 54% | 1008.8 hPa | 0 mm | - | - | - |
| 1778024723 | 15.56° C | 59% | 1008.7 hPa | 0 mm | - | - | - |
| 1778022919 | 16.11° C | 70% | 1009.4 hPa | 0.51 mm | - | - | - |
| 1778021113 | 17.22° C | 74% | 1010.4 hPa | 0.51 mm | - | - | - |
| 1778019911 | 18.89° C | 70% | 1010.2 hPa | 0.25 mm | - | - | - |
| 1778018409 | 20° C | 63% | 1009.9 hPa | 0 mm | - | - | - |
| 1778015407 | 21.11° C | 57% | 1009.3 hPa | 0 mm | - | - | - |
| 1778014509 | 21.11° C | 56% | 1009.1 hPa | 0 mm | - | - | - |
| 1778010060 | 21.11° C | 59% | 1010.1 hPa | 0 mm | - | - | - |
| 1778009762 | 21.11° C | 59% | 1010.2 hPa | 0 mm | - | - | - |
| 1778006763 | 20.56° C | 60% | 1011 hPa | 0 mm | - | - | - |
| 1778005889 | 20.56° C | 63% | 1011.1 hPa | 0 mm | - | - | - |
| 1778004657 | 21.11° C | 61% | 1011.2 hPa | 0 mm | - | - | - |
| 1778004356 | 21.11° C | 62% | 1011.2 hPa | 0 mm | - | - | - |
| 1778002855 | 21.11° C | 59% | 1011.4 hPa | 0 mm | - | - | - |
| 1778002554 | 21.11° C | 61% | 1011.5 hPa | 0 mm | - | - | - |
| 1778002259 | 20.56° C | 62% | 1011.4 hPa | 0 mm | - | - | - |
| 1778001054 | 21.11° C | 60% | 1011.4 hPa | 0 mm | - | - | - |
| 1778000755 | 21.11° C | 61% | 1011.5 hPa | 0 mm | - | - | - |
| 1778000452 | 21.11° C | 61% | 1011.5 hPa | 0 mm | - | - | - |
| 1777999551 | 20.56° C | 61% | 1011.5 hPa | 0 mm | - | - | - |
| 1777998949 | 20.56° C | 61% | 1011.5 hPa | 0 mm | - | - | - |
| 1777998650 | 20.56° C | 61% | 1011.5 hPa | 0 mm | - | - | - |
| 1777997147 | 20° C | 62% | 1011.4 hPa | 0 mm | - | - | - |
* Rain latest hour (hover to see other rain measurements)
** Current wind speed in m/s (hover to see current wind gust speed)